Terminal Aerodrome Forecast
Issued by NWS Twin Cities, MN

Home | Current Version | Previous Version | Graphics & Text | Print | Product List | Glossary Off
Versions: 1 2 3 4 5 6 7 8 9 10 11 12 13 14 15 16 17 18

000
FTUS43 KMPX 041122
TAFSTC
TAF
KSTC 041122Z 0412/0512 28008KT P6SM SKC
     FM041600 31015G21KT P6SM FEW030 FEW250
     FM050100 30007KT P6SM SKC
     FM050900 27005KT P6SM SKC=

USA.gov is the U.S. government's official web portal to all federal, state and local government web resources and services.